Time;durP1;ratioP1;P1;durP2;ratioP2;P2;SDS_P1;SDS_P2;PMS_P1;PMS_P2;Temp;Humidity;BMP_temperature;BMP_pressure;BME280_temperature;BME280_humidity;BME280_pressure;Samples;Min_cycle;Max_cycle;Signal;HPM_P1;HPM_P2
2023/01/14 00:01:02;;;;;;;2.22;1.38;;;17.60;50.40;;;;;;5034960;28;20611;-79
2023/01/14 00:03:31;;;;;;;2.65;1.20;;;17.50;50.40;;;;;;5035521;28;20196;-79
2023/01/14 00:05:59;;;;;;;2.08;1.27;;;17.50;50.40;;;;;;5035364;28;20212;-79
2023/01/14 00:08:26;;;;;;;1.30;1.20;;;17.50;50.30;;;;;;5036403;28;20216;-79
2023/01/14 00:10:54;;;;;;;1.65;1.30;;;17.50;50.30;;;;;;5035448;28;20202;-79
2023/01/14 00:13:21;;;;;;;1.60;1.08;;;17.50;50.30;;;;;;5034713;28;20203;-79
2023/01/14 00:15:52;;;;;;;2.05;1.30;;;17.40;50.20;;;;;;5034685;28;20235;-79
2023/01/14 00:18:19;;;;;;;2.17;1.27;;;17.40;50.30;;;;;;5034141;28;20219;-79
2023/01/14 00:20:56;;;;;;;1.33;1.20;;;17.40;50.10;;;;;;5033942;28;20675;-79
2023/01/14 00:23:25;;;;;;;2.25;1.40;;;17.30;50.20;;;;;;5033992;28;20204;-79
2023/01/14 00:25:52;;;;;;;1.55;1.27;;;17.30;50.20;;;;;;5033649;28;20228;-79
2023/01/14 00:28:20;;;;;;;2.00;1.20;;;17.30;50.20;;;;;;5034960;28;20192;-79
2023/01/14 00:30:46;;;;;;;1.90;1.10;;;17.30;50.20;;;;;;5033565;28;20192;-79
2023/01/14 00:33:13;;;;;;;1.20;1.10;;;17.30;50.40;;;;;;5034876;28;20200;-79
2023/01/14 00:35:41;;;;;;;2.67;1.40;;;17.20;50.20;;;;;;5033737;28;20226;-79
2023/01/14 00:38:07;;;;;;;1.60;1.20;;;17.20;50.20;;;;;;5017180;28;20199;-79
2023/01/14 00:40:36;;;;;;;2.00;1.30;;;17.20;50.30;;;;;;5033225;28;20203;-79
2023/01/14 00:43:03;;;;;;;1.55;1.20;;;17.10;50.20;;;;;;5033721;28;20238;-79
2023/01/14 00:45:30;;;;;;;2.75;1.30;;;17.10;50.20;;;;;;5033470;28;20220;-79
2023/01/14 00:47:58;;;;;;;1.88;1.50;;;17.10;50.40;;;;;;5033519;28;20196;-79
2023/01/14 00:50:25;;;;;;;2.33;1.15;;;17.10;50.20;;;;;;5033541;28;20242;-79
2023/01/14 00:52:52;;;;;;;2.10;1.30;;;17.00;50.20;;;;;;5033698;28;20203;-79
2023/01/14 00:55:19;;;;;;;1.40;1.30;;;17.10;50.20;;;;;;5033698;28;20215;-79
2023/01/14 00:57:47;;;;;;;3.00;1.33;;;17.00;50.20;;;;;;5033622;28;20211;-79
2023/01/14 01:00:15;;;;;;;2.47;1.20;;;17.00;50.10;;;;;;5033643;28;20195;-78
2023/01/14 01:02:43;;;;;;;1.45;1.10;;;17.00;50.10;;;;;;5034221;28;20231;-78
2023/01/14 01:05:10;;;;;;;1.75;1.00;;;17.00;50.20;;;;;;5033849;28;20334;-78
2023/01/14 01:07:37;;;;;;;1.63;1.10;;;16.90;50.00;;;;;;5017863;28;20295;-78
2023/01/14 01:10:05;;;;;;;1.30;1.20;;;17.00;50.20;;;;;;5033970;28;20268;-78
2023/01/14 01:12:34;;;;;;;2.03;1.20;;;16.90;50.10;;;;;;5033596;28;20188;-78
2023/01/14 01:15:02;;;;;;;2.22;1.30;;;16.90;50.00;;;;;;5017408;28;20234;-78
2023/01/14 01:17:30;;;;;;;1.98;1.40;;;16.90;50.30;;;;;;5033481;28;20277;-78
2023/01/14 01:19:57;;;;;;;2.60;1.45;;;16.80;50.20;;;;;;5033527;28;20200;-79
2023/01/14 01:22:24;;;;;;;1.52;1.25;;;16.80;50.30;;;;;;5034271;28;20594;-79
2023/01/14 01:24:51;;;;;;;1.35;1.10;;;16.80;50.20;;;;;;5033451;28;20243;-79
2023/01/14 01:27:19;;;;;;;2.17;1.33;;;16.80;50.30;;;;;;5034666;28;20679;-79
2023/01/14 01:29:46;;;;;;;1.58;1.25;;;16.70;50.30;;;;;;5034090;28;20200;-79
2023/01/14 01:32:16;;;;;;;1.35;1.25;;;16.80;50.60;;;;;;5034190;28;20211;-79
2023/01/14 01:34:43;;;;;;;1.33;1.23;;;16.70;50.40;;;;;;5033356;28;20223;-79
2023/01/14 01:37:11;;;;;;;2.70;1.17;;;16.70;50.60;;;;;;5033087;28;20730;-79
2023/01/14 01:39:38;;;;;;;2.13;1.30;;;16.70;50.60;;;;;;5033633;28;20291;-79
2023/01/14 01:42:05;;;;;;;2.40;1.05;;;16.70;50.60;;;;;;5036468;28;20566;-79
2023/01/14 01:45:10;;;;;;;1.77;1.40;;;16.70;50.60;;;;;;5037328;28;20212;-79
2023/01/14 01:47:39;;;;;;;1.48;1.38;;;16.70;50.60;;;;;;5037903;28;20330;-79
2023/01/14 01:50:07;;;;;;;1.40;1.30;;;16.60;50.50;;;;;;5037313;28;20203;-79
2023/01/14 01:52:34;;;;;;;1.85;1.13;;;16.60;51.20;;;;;;5038759;28;20180;-79
2023/01/14 01:58:17;;;;;;;4.20;1.42;;;16.60;50.70;;;;;;5426469;22;20598;-61
2023/01/14 02:00:45;;;;;;;2.03;1.40;;;16.60;50.50;;;;;;5016548;28;20198;-61
2023/01/14 02:03:16;;;;;;;1.42;1.13;;;16.50;50.50;;;;;;4998896;28;20306;-61
2023/01/14 02:05:43;;;;;;;1.90;1.50;;;16.50;50.40;;;;;;5016530;28;20176;-61
2023/01/14 02:08:12;;;;;;;2.42;1.40;;;16.60;50.50;;;;;;5016579;28;20239;-62
2023/01/14 02:10:52;;;;;;;1.70;1.50;;;16.50;50.50;;;;;;4999269;28;20685;-61
2023/01/14 02:13:29;;;;;;;2.33;1.67;;;16.50;50.40;;;;;;4998875;28;20232;-61
2023/01/14 02:16:03;;;;;;;1.55;1.15;;;16.50;50.40;;;;;;4999047;28;20639;-61
2023/01/14 02:18:38;;;;;;;1.20;1.10;;;16.50;50.40;;;;;;4998909;28;20746;-61
2023/01/14 02:21:10;;;;;;;1.40;1.30;;;16.50;50.50;;;;;;4998976;28;20239;-61
2023/01/14 02:24:14;;;;;;;1.38;1.20;;;16.50;50.40;;;;;;4998856;28;20228;-62
2023/01/14 02:26:54;;;;;;;1.20;1.10;;;16.40;50.50;;;;;;5016558;28;20257;-61
2023/01/14 02:29:32;;;;;;;1.20;1.10;;;16.40;50.40;;;;;;4999111;28;20255;-61
2023/01/14 02:32:02;;;;;;;2.13;1.17;;;16.40;50.40;;;;;;4999603;28;20204;-62
2023/01/14 02:34:33;;;;;;;2.30;1.25;;;16.40;50.50;;;;;;4999061;28;20240;-61
2023/01/14 02:37:05;;;;;;;1.35;1.10;;;16.40;50.40;;;;;;5005505;28;20201;-62
2023/01/14 02:39:36;;;;;;;1.80;1.10;;;16.40;50.50;;;;;;5008709;28;20211;-61
2023/01/14 02:44:54;;;;;;;1.48;1.10;;;16.30;50.40;;;;;;4998871;28;20185;-61
2023/01/14 02:47:22;;;;;;;1.83;1.10;;;16.30;50.40;;;;;;4999514;28;20228;-62
2023/01/14 02:49:52;;;;;;;1.25;1.15;;;16.30;50.40;;;;;;4998690;28;20584;-61
2023/01/14 02:52:19;;;;;;;1.98;1.15;;;16.30;50.40;;;;;;4999000;28;20259;-61
2023/01/14 02:54:54;;;;;;;1.65;1.23;;;16.30;50.40;;;;;;4998211;28;20703;-61
2023/01/14 02:57:34;;;;;;;2.53;1.20;;;16.30;50.40;;;;;;4998450;28;20291;-61
2023/01/14 03:00:04;;;;;;;2.58;1.20;;;16.30;50.40;;;;;;4998356;28;20204;-61
2023/01/14 03:02:42;;;;;;;2.70;1.20;;;16.30;50.40;;;;;;5021571;23;20286;-81
2023/01/14 03:05:25;;;;;;;1.20;1.00;;;16.20;50.30;;;;;;5032944;28;20189;-79
2023/01/14 03:07:55;;;;;;;3.17;1.30;;;16.30;50.50;;;;;;5020206;28;20314;-79
2023/01/14 03:10:24;;;;;;;1.75;1.10;;;16.20;50.40;;;;;;5019277;28;20250;-79
2023/01/14 03:13:00;;;;;;;1.10;1.00;;;16.20;50.50;;;;;;5018946;28;20275;-79
2023/01/14 03:15:30;;;;;;;1.45;1.35;;;16.20;50.50;;;;;;5018515;28;20198;-79
2023/01/14 03:17:59;;;;;;;1.83;1.30;;;16.20;50.40;;;;;;5018254;28;20200;-79
2023/01/14 03:20:27;;;;;;;1.63;1.20;;;16.20;50.50;;;;;;5018537;28;20266;-79
2023/01/14 03:22:55;;;;;;;1.10;0.93;;;16.20;50.30;;;;;;5018531;28;20220;-79
2023/01/14 03:25:23;;;;;;;1.70;1.25;;;16.10;50.50;;;;;;5017975;28;20287;-79
2023/01/14 03:27:52;;;;;;;1.20;1.10;;;16.10;50.60;;;;;;5018402;28;20216;-79
2023/01/14 03:30:22;;;;;;;1.20;1.10;;;16.10;50.60;;;;;;5019253;28;20584;-79
2023/01/14 03:32:53;;;;;;;1.55;1.10;;;16.10;50.60;;;;;;5018379;28;20215;-79
2023/01/14 03:35:22;;;;;;;2.28;1.30;;;16.10;50.60;;;;;;5018177;28;20219;-79
2023/01/14 03:37:51;;;;;;;1.60;0.98;;;16.10;50.60;;;;;;5018083;28;20223;-79
2023/01/14 03:40:19;;;;;;;0.93;0.93;;;16.00;50.60;;;;;;5002075;28;20200;-79
2023/01/14 03:42:47;;;;;;;1.40;0.93;;;16.10;50.70;;;;;;5017877;28;20686;-79
2023/01/14 03:45:17;;;;;;;1.02;0.93;;;16.10;50.70;;;;;;5017904;28;20207;-79
2023/01/14 03:47:44;;;;;;;2.70;1.17;;;16.10;50.70;;;;;;5018056;28;20220;-79
2023/01/14 03:50:13;;;;;;;1.20;1.10;;;16.00;50.60;;;;;;5018053;28;20311;-79
2023/01/14 03:52:48;;;;;;;1.25;1.10;;;16.00;50.70;;;;;;5017706;28;20196;-79
2023/01/14 03:55:17;;;;;;;1.40;1.05;;;16.00;50.80;;;;;;5018324;28;20198;-79
2023/01/14 03:57:47;;;;;;;2.20;1.23;;;16.00;50.90;;;;;;5017930;28;20223;-79
2023/01/14 04:00:17;;;;;;;1.85;1.15;;;16.00;50.70;;;;;;5017746;28;20204;-79
2023/01/14 04:02:45;;;;;;;1.42;1.20;;;16.00;50.80;;;;;;5017888;28;20232;-79
2023/01/14 04:05:13;;;;;;;2.22;1.27;;;16.00;50.80;;;;;;5001576;28;20208;-79
2023/01/14 04:07:40;;;;;;;1.45;1.05;;;16.00;50.80;;;;;;5018102;28;20252;-79
2023/01/14 04:10:08;;;;;;;2.65;1.20;;;16.00;50.90;;;;;;5018212;28;20618;-79
2023/01/14 04:15:20;;;;;;;2.40;1.20;;;16.00;50.90;;;;;;5018078;28;20640;-79
2023/01/14 04:15:22;;;;;;;1.25;1.02;;;16.00;51.10;;;;;;5018838;28;20191;-79
2023/01/14 04:17:48;;;;;;;1.55;1.10;;;15.90;51.30;;;;;;5019167;28;20694;-79
2023/01/14 04:20:17;;;;;;;1.55;1.08;;;15.90;51.30;;;;;;5018000;28;20192;-79
2023/01/14 04:22:44;;;;;;;1.60;1.10;;;15.90;51.80;;;;;;5017862;28;20345;-79
2023/01/14 04:25:11;;;;;;;2.08;1.20;;;15.80;51.90;;;;;;5017848;28;20192;-79
2023/01/14 04:27:38;;;;;;;2.33;1.10;;;15.80;52.20;;;;;;5017310;28;20216;-79
2023/01/14 04:30:07;;;;;;;1.65;1.02;;;15.90;52.30;;;;;;5017657;28;20250;-81
2023/01/14 04:32:34;;;;;;;1.50;1.00;;;15.80;52.20;;;;;;5017931;28;20541;-81
2023/01/14 04:35:01;;;;;;;1.05;0.95;;;15.80;52.10;;;;;;5001865;28;20687;-81
2023/01/14 04:37:30;;;;;;;1.00;0.75;;;15.90;52.00;;;;;;5018138;28;20216;-81
2023/01/14 04:39:57;;;;;;;1.02;0.90;;;15.90;52.00;;;;;;5017734;28;20250;-81
2023/01/14 04:42:26;;;;;;;1.55;1.20;;;16.00;52.10;;;;;;5017519;28;20219;-81
2023/01/14 04:44:53;;;;;;;1.10;1.00;;;15.90;51.90;;;;;;5001435;28;20192;-81
2023/01/14 04:47:20;;;;;;;1.50;1.20;;;16.00;51.90;;;;;;5017557;28;20227;-80
2023/01/14 04:49:47;;;;;;;1.20;0.95;;;16.00;51.90;;;;;;5017989;28;20211;-81
2023/01/14 04:52:14;;;;;;;1.55;0.98;;;16.00;51.90;;;;;;5001732;28;20188;-81
2023/01/14 04:54:42;;;;;;;1.52;1.05;;;16.00;51.70;;;;;;5017450;28;20218;-81
2023/01/14 04:57:09;;;;;;;1.13;1.00;;;16.00;51.70;;;;;;5001240;28;20208;-81
2023/01/14 04:59:36;;;;;;;1.65;1.25;;;16.00;51.70;;;;;;5017035;28;20366;-81
2023/01/14 05:02:03;;;;;;;2.22;1.02;;;16.00;51.40;;;;;;5017618;28;20208;-81
2023/01/14 05:04:31;;;;;;;1.25;1.00;;;16.10;51.60;;;;;;5001093;28;20254;-81
2023/01/14 05:06:57;;;;;;;0.90;0.90;;;16.10;51.50;;;;;;5017907;28;20322;-81
2023/01/14 05:09:24;;;;;;;1.65;1.10;;;16.10;51.50;;;;;;5017120;28;20386;-81
2023/01/14 05:11:53;;;;;;;0.90;0.90;;;16.00;51.40;;;;;;5017085;28;20279;-81
2023/01/14 05:14:20;;;;;;;2.33;1.20;;;16.10;51.40;;;;;;5017042;28;20207;-81
2023/01/14 05:16:47;;;;;;;1.23;1.08;;;16.10;51.40;;;;;;5020350;28;20230;-81
2023/01/14 05:19:14;;;;;;;1.35;1.00;;;16.00;51.00;;;;;;5020669;28;20200;-80
2023/01/14 05:21:41;;;;;;;1.48;1.00;;;16.10;50.80;;;;;;5020914;28;20203;-80
2023/01/14 05:24:09;;;;;;;1.13;1.08;;;16.10;50.70;;;;;;5020875;28;20224;-79
2023/01/14 05:26:36;;;;;;;1.55;1.05;;;16.20;50.60;;;;;;5021151;28;20239;-79
2023/01/14 05:29:06;;;;;;;1.25;1.08;;;16.20;50.60;;;;;;5020937;28;20204;-79
2023/01/14 05:31:33;;;;;;;1.10;1.00;;;16.30;50.50;;;;;;5020525;28;20196;-79
2023/01/14 05:34:00;;;;;;;1.40;1.00;;;16.30;50.40;;;;;;5020464;28;20200;-79
2023/01/14 05:36:28;;;;;;;1.13;0.90;;;16.30;50.40;;;;;;5020499;28;20216;-79
2023/01/14 05:38:54;;;;;;;1.20;1.10;;;16.30;50.40;;;;;;5020417;28;20299;-79
2023/01/14 05:41:22;;;;;;;1.25;1.00;;;16.30;50.40;;;;;;5020434;28;20235;-79
2023/01/14 05:46:34;;;;;;;1.75;1.15;;;16.40;50.30;;;;;;5020813;28;20211;-79
2023/01/14 05:49:01;;;;;;;1.40;0.90;;;16.30;50.30;;;;;;5004450;28;20263;-79
2023/01/14 05:51:28;;;;;;;1.10;1.00;;;16.40;50.50;;;;;;5020702;28;20274;-79
2023/01/14 05:53:55;;;;;;;1.90;0.90;;;16.40;50.30;;;;;;5020617;28;20200;-79
2023/01/14 05:56:22;;;;;;;0.98;0.85;;;16.40;50.20;;;;;;5020998;28;20216;-79
2023/01/14 05:58:50;;;;;;;1.05;0.90;;;16.40;50.20;;;;;;5021028;28;20250;-79
2023/01/14 06:06:48;;;;;;;1.10;0.95;;;16.40;50.20;;;;;;5039540;28;20298;-78
2023/01/14 06:09:18;;;;;;;1.58;1.10;;;16.40;50.80;;;;;;5021976;28;20188;-80
2023/01/14 06:12:01;;;;;;;0.82;0.80;;;16.40;49.90;;;;;;5022422;28;20203;-80
2023/01/14 06:14:29;;;;;;;1.23;0.82;;;16.50;50.00;;;;;;5021377;28;20191;-80
2023/01/14 06:16:57;;;;;;;1.73;0.90;;;16.50;49.90;;;;;;5020895;28;20212;-80
2023/01/14 06:19:26;;;;;;;1.88;1.08;;;16.50;50.00;;;;;;5020861;28;20291;-80
2023/01/14 06:21:53;;;;;;;1.33;1.10;;;16.50;49.80;;;;;;5020251;28;20655;-80
2023/01/14 06:24:20;;;;;;;1.23;0.95;;;16.50;49.60;;;;;;5019774;28;20247;-80
2023/01/14 06:26:47;;;;;;;1.27;1.00;;;16.60;49.70;;;;;;5019188;28;20215;-80
2023/01/14 06:29:14;;;;;;;1.23;0.88;;;16.60;49.60;;;;;;5019369;28;20204;-80
2023/01/14 06:31:42;;;;;;;2.47;1.23;;;16.60;49.70;;;;;;5019791;28;20228;-79
2023/01/14 06:34:09;;;;;;;2.83;1.10;;;16.60;49.50;;;;;;5020639;28;20192;-79
2023/01/14 06:36:37;;;;;;;1.00;0.93;;;16.60;49.70;;;;;;5019543;28;20219;-80
2023/01/14 06:39:05;;;;;;;1.80;1.10;;;16.60;49.40;;;;;;5019115;28;20200;-79
2023/01/14 06:41:31;;;;;;;1.20;1.10;;;16.60;49.50;;;;;;5019169;28;20231;-79
2023/01/14 06:43:58;;;;;;;1.27;1.17;;;16.60;49.50;;;;;;5018890;28;20208;-79
2023/01/14 06:46:26;;;;;;;1.92;1.15;;;16.60;49.60;;;;;;5019387;28;20224;-79
2023/01/14 06:48:53;;;;;;;1.55;1.10;;;16.50;49.50;;;;;;5019332;28;20204;-79
2023/01/14 06:51:20;;;;;;;1.27;1.08;;;16.60;49.60;;;;;;5037685;28;20651;-79
2023/01/14 06:53:49;;;;;;;1.30;1.20;;;16.60;49.50;;;;;;5020254;28;20262;-79
2023/01/14 06:56:17;;;;;;;1.60;1.20;;;16.60;49.40;;;;;;5021468;28;20220;-79
2023/01/14 06:58:45;;;;;;;1.35;1.00;;;16.60;49.40;;;;;;5020921;28;20204;-79
2023/01/14 07:01:12;;;;;;;2.30;1.30;;;16.60;50.10;;;;;;5020098;28;20200;-79
2023/01/14 07:03:40;;;;;;;1.52;1.13;;;16.60;49.70;;;;;;5019966;28;20311;-80
2023/01/14 07:06:07;;;;;;;1.52;0.98;;;16.60;49.80;;;;;;5019297;28;20259;-80
2023/01/14 07:08:34;;;;;;;1.17;1.00;;;16.60;49.70;;;;;;5019111;28;20207;-80
2023/01/14 07:11:02;;;;;;;1.17;0.90;;;16.60;49.70;;;;;;5019314;28;20204;-80
2023/01/14 07:13:29;;;;;;;0.95;0.88;;;16.60;49.70;;;;;;5019659;28;20215;-80
2023/01/14 07:15:57;;;;;;;1.35;1.00;;;16.60;49.70;;;;;;5002700;28;20220;-80
2023/01/14 07:18:25;;;;;;;1.73;1.13;;;16.60;49.70;;;;;;5019102;28;20206;-80
2023/01/14 07:20:53;;;;;;;1.00;0.90;;;16.70;49.80;;;;;;5018630;28;20200;-80
2023/01/14 07:23:20;;;;;;;1.60;0.90;;;16.60;49.60;;;;;;5020671;28;20220;-80
2023/01/14 07:25:47;;;;;;;1.05;0.98;;;16.60;49.70;;;;;;5021402;28;20287;-80
2023/01/14 07:28:16;;;;;;;1.58;0.90;;;16.60;49.70;;;;;;5036572;28;20188;-80
2023/01/14 07:30:43;;;;;;;1.48;1.02;;;16.60;49.90;;;;;;5019215;28;20291;-80
2023/01/14 07:33:10;;;;;;;1.50;1.20;;;16.70;49.90;;;;;;5018427;28;20196;-80
2023/01/14 07:35:37;;;;;;;1.05;0.93;;;16.60;49.80;;;;;;5019015;28;20269;-80
2023/01/14 07:38:04;;;;;;;1.73;0.93;;;16.60;49.70;;;;;;5017640;28;20193;-80
2023/01/14 07:40:31;;;;;;;1.20;1.10;;;16.60;49.60;;;;;;5018822;28;20196;-80
2023/01/14 07:42:58;;;;;;;1.15;1.00;;;16.70;49.80;;;;;;5002322;28;20619;-80
2023/01/14 07:45:28;;;;;;;2.78;0.90;;;16.60;49.80;;;;;;5019151;28;20211;-79
2023/01/14 07:47:55;;;;;;;1.17;0.88;;;16.70;49.90;;;;;;5018148;28;20254;-81
2023/01/14 07:50:22;;;;;;;1.92;1.10;;;16.60;49.90;;;;;;5018426;28;20210;-81
2023/01/14 07:52:53;;;;;;;1.08;0.90;;;16.70;49.90;;;;;;5018141;28;20695;-80
2023/01/14 07:55:20;;;;;;;1.10;0.98;;;16.70;49.90;;;;;;5035711;28;20688;-80
2023/01/14 07:57:47;;;;;;;1.15;1.05;;;16.70;49.90;;;;;;5018127;28;20220;-80
2023/01/14 08:00:15;;;;;;;2.03;0.98;;;16.70;49.80;;;;;;5036107;28;20681;-80
2023/01/14 08:02:44;;;;;;;1.08;0.98;;;16.70;49.90;;;;;;5001891;28;20208;-80
2023/01/14 08:05:11;;;;;;;1.17;0.80;;;16.80;49.90;;;;;;5017889;28;20235;-80
2023/01/14 08:07:39;;;;;;;1.38;1.00;;;16.80;49.80;;;;;;5018524;28;20227;-80
2023/01/14 08:10:07;;;;;;;2.13;1.40;;;16.80;49.60;;;;;;5001633;28;20381;-79
2023/01/14 08:12:34;;;;;;;1.15;1.05;;;16.90;49.70;;;;;;5017636;28;20201;-79
2023/01/14 08:15:02;;;;;;;1.30;1.15;;;16.90;49.60;;;;;;5017472;28;20192;-79
2023/01/14 08:17:29;;;;;;;1.00;0.90;;;16.90;49.50;;;;;;5017613;28;20250;-79
2023/01/14 08:19:57;;;;;;;1.23;1.13;;;17.00;49.60;;;;;;5017765;28;20204;-79
2023/01/14 08:22:24;;;;;;;2.05;1.08;;;17.00;49.50;;;;;;5017440;28;20200;-79
2023/01/14 08:24:52;;;;;;;2.00;1.00;;;17.10;49.60;;;;;;5017771;28;20219;-79
2023/01/14 08:27:18;;;;;;;1.38;1.20;;;17.10;49.30;;;;;;5017577;28;20238;-79
2023/01/14 08:29:46;;;;;;;2.22;1.10;;;17.10;49.30;;;;;;5017726;28;20661;-79
2023/01/14 08:32:13;;;;;;;1.25;1.15;;;17.20;49.50;;;;;;5017278;28;20188;-79
2023/01/14 08:34:40;;;;;;;2.25;1.45;;;17.20;49.40;;;;;;5017273;28;20622;-79
2023/01/14 08:37:09;;;;;;;2.28;1.35;;;17.30;49.40;;;;;;5002442;28;20243;-80
2023/01/14 08:39:36;;;;;;;2.60;1.20;;;17.30;49.30;;;;;;5001200;28;20291;-80
2023/01/14 08:42:04;;;;;;;1.30;1.10;;;17.40;49.10;;;;;;5001674;28;20196;-80
2023/01/14 08:44:31;;;;;;;1.70;1.20;;;17.40;49.10;;;;;;5016889;28;20220;-78
2023/01/14 08:46:58;;;;;;;2.15;1.30;;;17.50;48.90;;;;;;5017519;28;20223;-80
2023/01/14 08:49:25;;;;;;;1.50;1.17;;;17.50;48.90;;;;;;5017182;28;20203;-80
2023/01/14 08:51:52;;;;;;;1.38;1.10;;;17.50;48.70;;;;;;5017248;28;20200;-79
2023/01/14 08:54:21;;;;;;;1.42;1.17;;;17.50;48.80;;;;;;5017370;28;20192;-81
2023/01/14 08:56:48;;;;;;;2.95;1.35;;;17.50;48.70;;;;;;5016817;28;20753;-81
2023/01/14 08:59:15;;;;;;;1.60;1.20;;;17.50;48.70;;;;;;5017097;28;20273;-81
2023/01/14 09:01:42;;;;;;;1.55;1.45;;;17.50;48.80;;;;;;5017213;28;20199;-82
2023/01/14 09:04:10;;;;;;;4.07;2.40;;;17.50;49.10;;;;;;5017209;28;20230;-81
2023/01/14 09:17:04;;;;;;;3.53;2.15;;;17.60;49.00;;;;;;5017046;28;20269;-80
2023/01/14 09:17:42;;;;;;;3.15;1.92;;;17.60;49.40;;;;;;5017447;28;20212;-81
2023/01/14 09:20:10;;;;;;;2.00;1.80;;;17.50;50.10;;;;;;5019877;28;20191;-81
2023/01/14 09:22:38;;;;;;;2.60;1.77;;;17.50;49.70;;;;;;5019336;28;20724;-81
2023/01/14 09:25:08;;;;;;;2.40;1.77;;;17.60;49.70;;;;;;5019517;28;20695;-81
2023/01/14 09:27:35;;;;;;;2.30;2.00;;;17.60;50.60;;;;;;5018477;28;20224;-81
2023/01/14 09:30:02;;;;;;;3.35;1.75;;;17.60;49.90;;;;;;5017845;28;20204;-81
2023/01/14 09:32:29;;;;;;;4.32;1.90;;;17.60;50.00;;;;;;5017692;28;20204;-81
2023/01/14 09:34:57;;;;;;;3.22;1.92;;;17.60;49.70;;;;;;5018307;28;20200;-80
2023/01/14 09:37:24;;;;;;;3.10;1.55;;;17.60;49.90;;;;;;5019591;28;20222;-80
2023/01/14 09:39:51;;;;;;;5.63;2.00;;;17.60;50.20;;;;;;5020061;28;20203;-80
2023/01/14 09:42:24;;;;;;;4.13;1.77;;;17.60;50.20;;;;;;5020515;28;20196;-80
2023/01/14 09:44:51;;;;;;;435.08;248.52;;;17.60;50.10;;;;;;5019838;28;20266;-81
2023/01/14 09:47:18;;;;;;;433.25;300.05;;;17.60;54.10;;;;;;5019568;28;20216;-81
2023/01/14 09:49:45;;;;;;;322.05;233.85;;;17.60;56.50;;;;;;5019276;28;20200;-81
2023/01/14 09:52:26;;;;;;;203.15;138.90;;;17.60;57.50;;;;;;5019731;28;20211;-81
2023/01/14 09:54:59;;;;;;;124.63;88.70;;;17.70;56.80;;;;;;5004861;28;20520;-81
2023/01/14 09:57:36;;;;;;;102.03;66.45;;;17.70;55.90;;;;;;5019073;28;20598;-80
2023/01/14 10:00:06;;;;;;;86.78;58.00;;;17.70;54.60;;;;;;5019900;28;20254;-81
2023/01/14 10:02:40;;;;;;;67.93;46.70;;;17.80;53.60;;;;;;5039277;28;20670;-81
2023/01/14 10:05:15;;;;;;;53.35;40.25;;;17.80;52.80;;;;;;5007031;28;20243;-81
2023/01/14 10:07:42;;;;;;;53.38;38.72;;;17.90;51.60;;;;;;5023222;28;20273;-80
2023/01/14 10:10:17;;;;;;;54.25;38.00;;;17.90;51.70;;;;;;5021919;28;20254;-80
2023/01/14 10:12:46;;;;;;;53.75;38.13;;;17.90;51.30;;;;;;5023047;28;20262;-80
2023/01/14 10:15:20;;;;;;;52.28;35.38;;;17.90;51.40;;;;;;5022113;28;20568;-80
2023/01/14 10:17:49;;;;;;;50.00;34.80;;;17.90;51.20;;;;;;5022201;28;20231;-79
2023/01/14 10:20:19;;;;;;;48.55;34.08;;;17.90;51.30;;;;;;5004035;28;20208;-81
2023/01/14 10:22:48;;;;;;;44.70;31.75;;;18.00;51.00;;;;;;5020628;28;20234;-80
2023/01/14 10:25:17;;;;;;;49.05;32.13;;;18.00;51.00;;;;;;5020798;28;20215;-81
2023/01/14 10:27:47;;;;;;;40.75;30.98;;;18.00;50.80;;;;;;5039341;28;20202;-81
2023/01/14 10:30:18;;;;;;;43.33;29.63;;;18.10;50.60;;;;;;5020433;28;20189;-80
2023/01/14 10:32:46;;;;;;;38.83;28.33;;;18.10;50.50;;;;;;5019300;28;20208;-81
2023/01/14 10:35:14;;;;;;;40.35;28.05;;;18.10;50.50;;;;;;5019549;28;20200;-80
2023/01/14 10:37:41;;;;;;;33.88;25.50;;;18.10;50.50;;;;;;5019239;28;20216;-80
2023/01/14 10:40:15;;;;;;;39.72;27.15;;;18.10;50.20;;;;;;5019184;28;20215;-80
2023/01/14 10:42:42;;;;;;;33.83;24.88;;;18.10;50.20;;;;;;5019165;28;20191;-80
2023/01/14 10:45:13;;;;;;;38.38;26.63;;;18.10;50.70;;;;;;5019272;28;20227;-81
2023/01/14 10:47:40;;;;;;;34.30;23.20;;;18.10;50.10;;;;;;5018625;28;20216;-80
2023/01/14 10:50:17;;;;;;;34.05;23.83;;;18.10;50.00;;;;;;5019124;28;20299;-80
2023/01/14 10:52:44;;;;;;;32.70;23.55;;;18.10;50.00;;;;;;5019159;28;20191;-80
2023/01/14 10:55:14;;;;;;;30.25;22.23;;;18.10;50.00;;;;;;5018883;28;20199;-80
2023/01/14 10:57:46;;;;;;;30.38;22.50;;;18.20;50.00;;;;;;5018912;28;20279;-80
2023/01/14 11:00:29;;;;;;;31.98;23.25;;;18.20;50.00;;;;;;5018863;28;20196;-80
2023/01/14 11:02:57;;;;;;;30.63;21.33;;;18.20;49.80;;;;;;5002612;28;20208;-80
2023/01/14 11:05:26;;;;;;;29.58;20.98;;;18.20;49.70;;;;;;5018642;28;20298;-81
2023/01/14 11:07:54;;;;;;;29.77;20.23;;;18.20;49.90;;;;;;5019012;28;20220;-79
2023/01/14 11:10:22;;;;;;;27.02;19.70;;;18.30;49.70;;;;;;5018729;28;20196;-79
2023/01/14 11:12:49;;;;;;;27.67;19.38;;;18.20;49.50;;;;;;5018864;28;20216;-80
2023/01/14 11:15:35;;;;;;;22.73;17.10;;;18.30;49.60;;;;;;5018967;28;20196;-80
2023/01/14 11:18:23;;;;;;;21.75;15.88;;;18.30;49.40;;;;;;5031049;28;20193;-80
2023/01/14 11:20:53;;;;;;;23.23;17.40;;;18.30;48.90;;;;;;5034581;28;20224;-80
2023/01/14 11:23:26;;;;;;;24.73;16.73;;;18.40;49.00;;;;;;5040192;28;20203;-80
2023/01/14 11:25:55;;;;;;;24.70;16.98;;;18.40;49.00;;;;;;5013967;28;20227;-80
2023/01/14 11:28:21;;;;;;;23.70;16.23;;;18.40;49.00;;;;;;5027594;28;20200;-80
2023/01/14 11:30:52;;;;;;;21.67;14.85;;;18.50;48.80;;;;;;5028672;28;20204;-80
2023/01/14 11:33:21;;;;;;;20.45;14.65;;;18.50;48.90;;;;;;5028057;28;20192;-80
2023/01/14 11:35:51;;;;;;;25.52;15.00;;;18.50;48.90;;;;;;5028796;28;20192;-80
2023/01/14 11:38:21;;;;;;;21.75;15.75;;;18.50;48.80;;;;;;5028905;28;20204;-80
2023/01/14 11:43:38;;;;;;;18.98;13.80;;;18.60;48.80;;;;;;5030303;28;20200;-80
2023/01/14 11:46:07;;;;;;;17.45;13.45;;;18.50;49.40;;;;;;5023818;28;20232;-80
2023/01/14 11:48:34;;;;;;;18.17;13.25;;;18.50;48.70;;;;;;5022062;28;20192;-80
2023/01/14 11:51:02;;;;;;;18.95;12.77;;;18.60;48.50;;;;;;5019487;28;20192;-80
2023/01/14 11:53:43;;;;;;;17.77;12.73;;;18.60;48.50;;;;;;5018006;28;20295;-81
2023/01/14 11:56:13;;;;;;;18.20;12.30;;;18.60;48.80;;;;;;5036874;28;20643;-80
2023/01/14 11:58:40;;;;;;;15.73;11.75;;;18.60;48.60;;;;;;5021383;28;20188;-81
2023/01/14 12:01:22;;;;;;;16.40;11.57;;;18.60;49.30;;;;;;5023726;28;20639;-81
2023/01/14 12:03:53;;;;;;;16.95;11.07;;;18.60;49.10;;;;;;5022201;28;20208;-81
2023/01/14 12:06:23;;;;;;;14.95;10.40;;;18.60;49.10;;;;;;5018577;28;20227;-81
2023/01/14 12:08:53;;;;;;;16.48;10.98;;;18.60;49.00;;;;;;5018139;28;20317;-81
2023/01/14 12:11:21;;;;;;;16.17;10.75;;;18.60;48.90;;;;;;5018112;28;20210;-81
2023/01/14 12:16:52;;;;;;;15.23;9.75;;;18.70;48.80;;;;;;5022013;28;20307;-81
2023/01/14 12:19:21;;;;;;;13.63;9.93;;;18.70;48.50;;;;;;5021988;28;20696;-81
2023/01/14 12:21:50;;;;;;;16.80;10.05;;;18.70;48.50;;;;;;5021545;28;20218;-81
2023/01/14 12:24:21;;;;;;;15.52;9.60;;;18.70;48.70;;;;;;5021348;28;20200;-81
2023/01/14 12:26:48;;;;;;;15.48;9.27;;;18.70;48.50;;;;;;5005854;28;20216;-81
2023/01/14 12:29:17;;;;;;;13.18;8.95;;;18.70;48.50;;;;;;5021862;28;20200;-80
2023/01/14 12:31:47;;;;;;;11.73;8.25;;;18.70;48.40;;;;;;5037143;28;20199;-80
2023/01/14 12:34:18;;;;;;;12.18;8.20;;;18.60;48.30;;;;;;5017549;28;20220;-80
2023/01/14 12:36:48;;;;;;;11.77;7.47;;;18.70;48.80;;;;;;5017433;28;20314;-80
2023/01/14 12:47:42;;;;;;;12.40;7.55;;;18.70;48.10;;;;;;5017259;28;20307;-81
2023/01/14 12:50:12;;;;;;;10.35;7.38;;;18.70;48.00;;;;;;5017091;28;20204;-81
2023/01/14 12:52:42;;;;;;;10.88;7.38;;;18.70;48.10;;;;;;5016857;28;20192;-81
2023/01/14 12:55:18;;;;;;;10.02;7.35;;;18.70;48.30;;;;;;5016782;28;20571;-81
2023/01/14 12:57:49;;;;;;;9.80;6.80;;;18.70;48.10;;;;;;5017470;28;20219;-81
2023/01/14 13:00:21;;;;;;;10.15;6.85;;;18.60;48.10;;;;;;5017214;28;20212;-81
2023/01/14 13:02:52;;;;;;;10.10;6.85;;;18.70;48.10;;;;;;5000541;28;20212;-81
2023/01/14 13:05:26;;;;;;;10.30;6.93;;;18.70;48.10;;;;;;5016396;28;20219;-81
2023/01/14 13:07:55;;;;;;;11.73;6.55;;;18.60;48.10;;;;;;5016814;28;20219;-81
2023/01/14 13:10:29;;;;;;;8.27;6.10;;;18.60;48.10;;;;;;5016796;28;20196;-81
2023/01/14 13:12:58;;;;;;;10.85;7.00;;;18.60;48.00;;;;;;5016711;28;20209;-81
2023/01/14 13:15:27;;;;;;;9.57;6.18;;;18.60;47.90;;;;;;5017010;28;20234;-81
2023/01/14 13:17:56;;;;;;;10.38;6.32;;;18.60;48.00;;;;;;5016586;28;20239;-81
2023/01/14 13:20:56;;;;;;;7.18;5.43;;;18.60;48.10;;;;;;5016760;28;20207;-81
2023/01/14 13:23:57;;;;;;;8.98;6.05;;;18.60;47.90;;;;;;4938172;29;20293;-81
2023/01/14 13:27:06;;;;;;;9.70;5.80;;;18.60;47.90;;;;;;4954195;28;20236;-81
2023/01/14 13:29:33;;;;;;;8.52;5.45;;;18.60;47.90;;;;;;4970324;28;20658;-81
2023/01/14 13:32:01;;;;;;;7.10;4.72;;;18.60;47.70;;;;;;5024289;28;20335;-81